Aérodrome :
LOGIN :

S'inscrire | Disclaimer

   EN    FR    IT 

 










Légende :    VFR   VFR Marginal   IFR   IFR Intensif   IFR Très Intensif
Visi : 
Plafond : 
>= 8 km
>= 3000ft
5 à 8 km
1000 à 3000 ft
1500m à 5 km
500 à 1000 ft
800 à 1500m
200 à 500 ft
< 800m
< 200 ft
Symboles :   Orages  Brouillard  Fortes neiges  Fortes précipitations  Vent > 20 kt
SIGMETs :   Divers  Orages  Givrage  Turbulence  Onde Orograph.  Cendres Volcan.







- Altitude de l'aérodrome : 1487 ft
- Code IATA : MUC


EDDM - München Franz Josef Strauss

DERNIER METAR :
  • 222020Z VRB02KT CAVOK 20/15 Q1015 NOSIG

METARs EXPIRÉS :
  • 221950Z VRB03KT CAVOK 21/15 Q1015 NOSIG
  • 221920Z VRB01KT CAVOK 25/13 Q1015 NOSIG
  • 221850Z 19001KT CAVOK 25/12 Q1015 NOSIG
  • 221820Z VRB02KT CAVOK 27/12 Q1015 NOSIG
  • 221750Z 29004KT CAVOK 27/13 Q1014 NOSIG

TAF TAF EDDM
Valide du 22 à 18h jusqu'au 24 à 00h UTC


221700Z 2218/2324 VRB03KT CAVOK
BECMG 2223/2224 23008KT
TEMPO 2300/2306 26015G25KT 4000 TSRA BKN030CB
BECMG 2307/2309 23013KT
TEMPO 2310/2314 26015G25KT 4000 TSRA BKN030CB
BECMG 2312/2314 25015G25KT
BECMG 2317/2318 23008KT
Pas de NOTAMs connus pour ce terrain.



MET'MAP, la Météo Aéronautique d'un coup d'oeil ! - Copyright ORBIFLY Décembre 2007 - Disclaimer

ORBIFLY MET'MAP TEAM :

Programmation & Développement : Alexandra Zaïnal
Conception & Développement : Baudouin d'Aumeries
Co-Programmation & Développement : Marc-Olivier Méhu
Soutien technique & logistique : Manuel Goepfert

Contact : metmap@orbifly.com




SOURCES & CREDITS :

   NOAA